createdAt,value
2022-09-23T00:02:24.748Z,95802.44
2022-09-23T00:05:26.586Z,95801.25
2022-09-23T00:08:28.526Z,95799.81
2022-09-23T00:11:30.200Z,95794.69
2022-09-23T00:14:33.197Z,95794.63
2022-09-23T00:17:34.828Z,95794.56
2022-09-23T00:20:36.523Z,95806.13
2022-09-23T00:23:38.500Z,95797.25
2022-09-23T00:26:40.137Z,95801.75
2022-09-23T00:29:43.140Z,95801.22
2022-09-23T00:32:44.906Z,95790.06
2022-09-23T00:35:46.676Z,95782.47
2022-09-23T00:38:48.378Z,95780.75
2022-09-23T00:41:50.092Z,95772.19
2022-09-23T00:44:54.287Z,95778.53
2022-09-23T00:47:58.041Z,95774.41
2022-09-23T00:50:59.663Z,95765.72
2022-09-23T00:54:02.167Z,95772.16
2022-09-23T00:57:05.022Z,95775.19
2022-09-23T01:00:09.066Z,95776.41
2022-09-23T01:03:10.694Z,95766.50
2022-09-23T01:06:12.740Z,95767.56
2022-09-23T01:09:14.325Z,95769.47
2022-09-23T01:12:23.887Z,95767.69
2022-09-23T01:15:32.982Z,95761.53
2022-09-23T01:18:39.478Z,95759.22
2022-09-23T01:21:46.138Z,95761.91
2022-09-23T01:24:52.495Z,95757.34
2022-09-23T01:28:04.428Z,95750.34
2022-09-23T01:31:10.035Z,95751.84
2022-09-23T01:34:14.799Z,95750.59
2022-09-23T01:37:21.557Z,95754.69
2022-09-23T01:40:25.630Z,95748.75
2022-09-23T01:43:31.239Z,95749.63
2022-09-23T01:46:38.302Z,95751.81
2022-09-23T01:49:43.806Z,95745.78
2022-09-23T01:52:46.997Z,95747.50
2022-09-23T01:55:51.285Z,95748.41
2022-09-23T01:58:56.830Z,95746.00
2022-09-23T02:02:02.936Z,95742.81
2022-09-23T02:05:07.302Z,95740.50
2022-09-23T02:08:11.016Z,95743.63
2022-09-23T02:11:13.616Z,95741.31
2022-09-23T02:14:19.428Z,95735.56
2022-09-23T02:17:24.461Z,95729.31
2022-09-23T02:20:28.334Z,95730.38
2022-09-23T02:23:32.340Z,95726.84
2022-09-23T02:26:35.378Z,95725.63
2022-09-23T02:29:40.761Z,95735.25
2022-09-23T02:32:49.850Z,95743.97
2022-09-23T02:35:53.969Z,95735.84
2022-09-23T02:38:58.143Z,95735.63
2022-09-23T02:42:02.175Z,95743.81
2022-09-23T02:45:04.201Z,95734.44
2022-09-23T02:48:09.700Z,95731.09
2022-09-23T02:51:12.775Z,95731.75
2022-09-23T02:54:16.106Z,95732.16
2022-09-23T02:57:17.842Z,95722.63
2022-09-23T03:00:19.479Z,95728.63
2022-09-23T03:03:29.809Z,95727.69
2022-09-23T03:06:35.177Z,95725.44
2022-09-23T03:09:40.267Z,95719.50
2022-09-23T03:12:46.047Z,95727.03
2022-09-23T03:15:50.622Z,95722.44
2022-09-23T03:18:57.304Z,95723.25
2022-09-23T03:22:00.801Z,95720.19
2022-09-23T03:25:06.447Z,95722.03
2022-09-23T03:28:08.674Z,95715.94
2022-09-23T03:31:11.567Z,95710.25
2022-09-23T03:34:16.246Z,95710.00
2022-09-23T03:37:20.671Z,95708.03
2022-09-23T03:40:24.089Z,95706.66
2022-09-23T03:43:25.832Z,95704.53
2022-09-23T03:46:27.654Z,95697.91
2022-09-23T03:49:33.916Z,95697.31
2022-09-23T03:52:35.560Z,95700.22
2022-09-23T03:55:37.147Z,95706.38
2022-09-23T03:58:38.736Z,95702.97
2022-09-23T04:01:40.434Z,95697.25
2022-09-23T04:04:43.459Z,95693.03
2022-09-23T04:07:45.069Z,95686.44
2022-09-23T04:10:47.418Z,95691.31
2022-09-23T04:13:50.038Z,95689.75
2022-09-23T04:16:51.998Z,95692.44
2022-09-23T04:19:55.088Z,95690.13
2022-09-23T04:22:56.689Z,95693.06
2022-09-23T04:25:58.241Z,95690.22
2022-09-23T04:28:59.975Z,95687.00
2022-09-23T04:32:01.867Z,95693.06
2022-09-23T04:35:05.848Z,95689.09
2022-09-23T04:38:07.636Z,95684.06
2022-09-23T04:41:09.319Z,95688.31
2022-09-23T04:44:11.130Z,95691.78
2022-09-23T04:47:12.872Z,95686.81
2022-09-23T04:50:15.900Z,95689.59
2022-09-23T04:53:17.524Z,95693.91
2022-09-23T04:56:20.442Z,95702.75
2022-09-23T04:59:22.075Z,95693.84
2022-09-23T05:02:23.769Z,95693.31
2022-09-23T05:05:27.007Z,95698.50
2022-09-23T05:08:28.768Z,95703.00
2022-09-23T05:11:30.928Z,95695.81
2022-09-23T05:14:32.660Z,95696.00
2022-09-23T05:17:34.250Z,95700.50
2022-09-23T05:20:37.320Z,95704.31
2022-09-23T05:23:39.374Z,95703.88
2022-09-23T05:26:41.109Z,95701.19
2022-09-23T05:29:42.727Z,95699.22
2022-09-23T05:32:44.405Z,95705.00
2022-09-23T05:35:48.331Z,95707.00
2022-09-23T05:38:50.501Z,95711.25
2022-09-23T05:41:52.097Z,95712.03
2022-09-23T05:44:54.110Z,95717.47
2022-09-23T05:47:55.704Z,95713.75
2022-09-23T05:50:58.945Z,95719.81
2022-09-23T05:54:00.892Z,95711.59
2022-09-23T05:57:04.881Z,95719.03
2022-09-23T06:00:07.582Z,95717.66
2022-09-23T06:03:12.277Z,95716.69
2022-09-23T06:06:15.980Z,95718.94
2022-09-23T06:09:17.586Z,95721.44
2022-09-23T06:12:19.479Z,95712.19
2022-09-23T06:15:21.113Z,95714.72
2022-09-23T06:18:22.719Z,95719.72
2022-09-23T06:21:25.889Z,95718.31
2022-09-23T06:24:31.313Z,95719.44
2022-09-23T06:27:33.309Z,95712.88
2022-09-23T06:30:34.990Z,95715.72
2022-09-23T06:33:37.422Z,95712.44
2022-09-23T06:36:44.428Z,95718.06
2022-09-23T06:39:46.489Z,95713.91
2022-09-23T06:42:52.107Z,95718.31
2022-09-23T06:45:54.471Z,95716.81
2022-09-23T06:48:56.073Z,95716.91
2022-09-23T06:51:59.083Z,95713.09
2022-09-23T06:55:00.719Z,95711.69
2022-09-23T06:58:02.383Z,95712.53
2022-09-23T07:01:05.793Z,95717.56
2022-09-23T07:04:08.375Z,95713.75
2022-09-23T07:07:11.460Z,95714.19
2022-09-23T07:10:13.090Z,95714.63
2022-09-23T07:13:16.371Z,95717.81
2022-09-23T07:16:18.238Z,95721.41
2022-09-23T07:19:20.028Z,95719.06
2022-09-23T07:22:23.224Z,95724.19
2022-09-23T07:25:24.821Z,95721.19
2022-09-23T07:28:26.426Z,95723.88
2022-09-23T07:31:38.471Z,95723.19
2022-09-23T07:34:41.593Z,95726.44
2022-09-23T07:37:44.857Z,95720.06
2022-09-23T07:40:46.515Z,95726.38
2022-09-23T07:43:48.195Z,95728.41
2022-09-23T07:46:49.985Z,95734.22
2022-09-23T07:49:51.687Z,95738.09
2022-09-23T07:52:54.664Z,95734.28
2022-09-23T07:55:56.740Z,95729.13
2022-09-23T07:58:58.362Z,95723.88
2022-09-23T08:02:00.103Z,95728.63
2022-09-23T08:05:01.845Z,95734.78
2022-09-23T08:08:04.924Z,95722.63
2022-09-23T08:11:08.157Z,95728.56
2022-09-23T08:14:10.077Z,95727.72
2022-09-23T08:17:12.350Z,95730.91
2022-09-23T08:20:14.222Z,95722.91
2022-09-23T08:23:17.290Z,95721.13
2022-09-23T08:26:22.026Z,95716.34
2022-09-23T08:29:24.789Z,95721.19
2022-09-23T08:32:26.395Z,95718.59
2022-09-23T08:35:28.115Z,95714.16
2022-09-23T08:38:31.250Z,95710.75
2022-09-23T08:41:39.032Z,95707.06
2022-09-23T08:44:46.817Z,95710.47
2022-09-23T08:47:51.611Z,95708.78
2022-09-23T08:50:56.292Z,95708.56
2022-09-23T08:53:59.719Z,95707.06
2022-09-23T08:57:02.501Z,95703.28
2022-09-23T09:00:04.596Z,95700.44
2022-09-23T09:03:16.941Z,95702.06
2022-09-23T09:06:20.178Z,95701.72
2022-09-23T09:09:25.906Z,95701.78
2022-09-23T09:12:32.757Z,95701.44
2022-09-23T09:15:37.004Z,95697.81
2022-09-23T09:18:40.440Z,95703.72
2022-09-23T09:21:43.801Z,95697.25
2022-09-23T09:24:48.691Z,95693.19
2022-09-23T09:27:51.333Z,95696.38
2022-09-23T09:30:54.029Z,95691.06
2022-09-23T09:34:00.365Z,95696.50
2022-09-23T09:37:06.822Z,95696.09
2022-09-23T09:40:13.361Z,95689.63
2022-09-23T09:43:16.908Z,95691.66
2022-09-23T09:46:26.679Z,95692.31
2022-09-23T09:49:31.180Z,95693.09
2022-09-23T09:52:33.062Z,95690.25
2022-09-23T09:55:36.169Z,95684.41
2022-09-23T09:58:44.235Z,95684.91
2022-09-23T10:01:45.957Z,95673.72
2022-09-23T10:04:54.072Z,95676.84
2022-09-23T10:07:55.755Z,95672.63
2022-09-23T10:11:01.644Z,95671.06
2022-09-23T10:14:04.780Z,95658.00
2022-09-23T10:17:07.225Z,95660.72
2022-09-23T10:20:10.002Z,95649.50
2022-09-23T10:23:15.677Z,95654.94
2022-09-23T10:26:26.309Z,95648.75
2022-09-23T10:29:31.575Z,95646.44
2022-09-23T10:32:33.859Z,95647.22
2022-09-23T10:35:35.555Z,95655.34
2022-09-23T10:38:37.359Z,95649.53
2022-09-23T10:41:44.707Z,95646.44
2022-09-23T10:44:56.245Z,95642.97
2022-09-23T10:48:01.840Z,95642.94
2022-09-23T10:51:06.522Z,95638.69
2022-09-23T10:54:14.664Z,95637.53
2022-09-23T10:57:25.177Z,95628.97
2022-09-23T11:00:35.295Z,95627.03
2022-09-23T11:03:50.794Z,95626.25
2022-09-23T11:07:01.438Z,95624.69
2022-09-23T11:10:35.241Z,95625.78
2022-09-23T11:13:54.199Z,95618.47
2022-09-23T11:17:07.537Z,95608.41
2022-09-23T11:20:16.677Z,95611.81
2022-09-23T11:23:33.156Z,95606.69
2022-09-23T11:26:39.538Z,95609.00
2022-09-23T11:29:55.460Z,95605.75
2022-09-23T11:33:16.244Z,95603.06
2022-09-23T11:36:22.036Z,95597.19
2022-09-23T11:39:28.127Z,95584.72
2022-09-23T11:42:31.538Z,95590.00
2022-09-23T11:45:36.814Z,95587.81
2022-09-23T11:48:43.004Z,95574.94
2022-09-23T11:51:50.274Z,95580.34
2022-09-23T11:54:54.664Z,95570.59
2022-09-23T11:57:57.710Z,95573.13
2022-09-23T12:01:04.212Z,95569.53
2022-09-23T12:04:18.041Z,95558.63
2022-09-23T12:07:24.391Z,95558.50
2022-09-23T12:10:35.955Z,95561.63
2022-09-23T12:13:42.829Z,95560.72
2022-09-23T12:16:55.288Z,95557.88
2022-09-23T12:20:03.399Z,95555.44
2022-09-23T12:23:13.018Z,95555.69
2022-09-23T12:26:16.778Z,95550.81
2022-09-23T12:29:18.697Z,95550.25
2022-09-23T12:32:22.049Z,95548.34
2022-09-23T12:35:24.892Z,95548.69
2022-09-23T12:38:32.329Z,95538.94
2022-09-23T12:41:36.580Z,95537.75
2022-09-23T12:44:39.588Z,95534.13
2022-09-23T12:47:42.721Z,95534.84
2022-09-23T12:50:48.430Z,95530.88
2022-09-23T12:53:54.984Z,95532.59
2022-09-23T12:57:06.231Z,95526.19
2022-09-23T13:00:15.152Z,95528.00
2022-09-23T13:03:18.225Z,95513.59
2022-09-23T13:06:19.882Z,95516.94
2022-09-23T13:09:22.756Z,95512.19
2022-09-23T13:12:28.530Z,95503.25
2022-09-23T13:15:31.206Z,95506.88
2022-09-23T13:18:56.582Z,95498.75
2022-09-23T13:22:00.906Z,95501.13
2022-09-23T13:25:09.929Z,95493.03
2022-09-23T13:28:23.602Z,95494.22
2022-09-23T13:31:25.296Z,95490.94
2022-09-23T13:34:30.053Z,95490.81
2022-09-23T13:37:40.759Z,95485.00
2022-09-23T13:40:43.668Z,95479.31
2022-09-23T13:43:47.883Z,95475.19
2022-09-23T13:46:51.633Z,95470.38
2022-09-23T13:49:53.710Z,95471.75
2022-09-23T13:52:58.153Z,95464.28
2022-09-23T13:56:01.427Z,95463.16
2022-09-23T13:59:20.214Z,95465.88
2022-09-23T14:02:21.872Z,95465.88
2022-09-23T14:05:24.475Z,95469.16
2022-09-23T14:08:27.890Z,95463.84
2022-09-23T14:11:30.919Z,95455.41
2022-09-23T14:14:35.116Z,95451.38
2022-09-23T14:17:36.898Z,95453.31
2022-09-23T14:20:44.861Z,95447.38
2022-09-23T14:23:48.015Z,95449.31
2022-09-23T14:26:51.999Z,95443.00
2022-09-23T14:29:53.751Z,95443.00
2022-09-23T14:32:55.428Z,95443.41
2022-09-23T14:36:02.604Z,95432.84
2022-09-23T14:39:07.164Z,95435.09
2022-09-23T14:42:09.689Z,95432.84
2022-09-23T14:45:13.864Z,95428.94
2022-09-23T14:48:17.338Z,95426.47
2022-09-23T14:51:19.006Z,95425.28
2022-09-23T14:54:29.082Z,95427.75
2022-09-23T14:57:30.794Z,95431.34
2022-09-23T15:00:32.521Z,95417.38
2022-09-23T15:03:34.212Z,95421.56
2022-09-23T15:06:36.428Z,95419.66
2022-09-23T15:09:40.038Z,95425.19
2022-09-23T15:12:42.228Z,95422.91
2022-09-23T15:15:44.522Z,95412.94
2022-09-23T15:18:53.123Z,95416.84
2022-09-23T15:21:54.916Z,95415.38
2022-09-23T15:25:11.648Z,95407.91
2022-09-23T15:28:17.929Z,95405.66
2022-09-23T15:31:20.736Z,95408.47
2022-09-23T15:34:22.412Z,95411.53
2022-09-23T15:37:24.086Z,95412.59
2022-09-23T15:40:27.975Z,95407.13
2022-09-23T15:43:29.703Z,95405.31
2022-09-23T15:46:31.403Z,95403.56
2022-09-23T15:49:34.312Z,95401.00
2022-09-23T15:52:35.935Z,95399.75
2022-09-23T15:55:38.960Z,95397.13
2022-09-23T15:58:40.571Z,95399.09
2022-09-23T16:01:42.878Z,95396.03
2022-09-23T16:04:44.670Z,95397.03
2022-09-23T16:07:46.389Z,95382.63
2022-09-23T16:10:49.926Z,95390.31
2022-09-23T16:13:51.913Z,95385.09
2022-09-23T16:16:53.722Z,95387.50
2022-09-23T16:19:55.497Z,95384.50
2022-09-23T16:22:58.018Z,95389.38
2022-09-23T16:26:02.583Z,95387.75
2022-09-23T16:29:04.228Z,95395.66
2022-09-23T16:32:05.958Z,95393.28
2022-09-23T16:35:08.441Z,95392.03
2022-09-23T16:38:10.135Z,95395.25
2022-09-23T16:41:13.148Z,95393.91
2022-09-23T16:44:14.768Z,95397.28
2022-09-23T16:47:16.545Z,95394.75
2022-09-23T16:50:19.044Z,95391.47
2022-09-23T16:53:20.670Z,95398.59
2022-09-23T16:56:28.202Z,95389.09
2022-09-23T16:59:30.254Z,95384.19
2022-09-23T17:02:31.967Z,95385.91
2022-09-23T17:05:33.761Z,95384.59
2022-09-23T17:08:35.539Z,95388.34
2022-09-23T17:11:38.712Z,95386.44
2022-09-23T17:14:40.491Z,95390.50
2022-09-23T17:17:45.222Z,95390.72
2022-09-23T17:20:55.940Z,95401.22
2022-09-23T17:23:57.918Z,95395.13
2022-09-23T17:27:01.218Z,95392.63
2022-09-23T17:30:03.294Z,95397.19
2022-09-23T17:33:04.907Z,95397.00
2022-09-23T17:36:07.433Z,95392.03
2022-09-23T17:39:09.225Z,95380.84
2022-09-23T17:42:12.382Z,95389.78
2022-09-23T17:45:14.057Z,95394.84
2022-09-23T17:48:15.959Z,95387.19
2022-09-23T17:51:18.137Z,95392.59
2022-09-23T17:54:19.831Z,95386.38
2022-09-23T17:57:22.954Z,95387.16
2022-09-23T18:00:24.742Z,95389.50
2022-09-23T18:03:27.509Z,95392.56
2022-09-23T18:06:29.949Z,95394.25
2022-09-23T18:09:31.652Z,95392.00
2022-09-23T18:12:34.732Z,95389.75
2022-09-23T18:15:36.616Z,95387.88
2022-09-23T18:18:38.252Z,95395.63
2022-09-23T18:21:41.042Z,95387.91
2022-09-23T18:24:42.774Z,95388.69
2022-09-23T18:27:47.317Z,95386.34
2022-09-23T18:30:52.528Z,95385.91
2022-09-23T18:33:54.636Z,95383.97
2022-09-23T18:36:56.449Z,95382.06
2022-09-23T18:39:58.125Z,95395.22
2022-09-23T18:43:01.138Z,95391.00
2022-09-23T18:46:03.976Z,95395.25
2022-09-23T18:49:05.773Z,95389.84
2022-09-23T18:52:07.396Z,95389.84
2022-09-23T18:55:09.020Z,95385.53
2022-09-23T18:58:12.093Z,95389.25
2022-09-23T19:01:14.211Z,95390.47
2022-09-23T19:04:17.188Z,95390.03
2022-09-23T19:07:18.906Z,95394.69
2022-09-23T19:10:20.510Z,95396.66
2022-09-23T19:13:23.513Z,95393.59
2022-09-23T19:16:25.423Z,95399.75
2022-09-23T19:19:27.119Z,95389.00
2022-09-23T19:22:28.723Z,95391.59
2022-09-23T19:25:30.295Z,95395.34
2022-09-23T19:28:33.294Z,95395.34
2022-09-23T19:31:36.563Z,95401.19
2022-09-23T19:34:38.571Z,95395.44
2022-09-23T19:37:40.185Z,95393.47
2022-09-23T19:40:43.109Z,95388.72
2022-09-23T19:43:48.569Z,95395.03
2022-09-23T19:46:55.129Z,95393.78
2022-09-23T19:49:58.226Z,95390.13
2022-09-23T19:52:59.833Z,95395.06
2022-09-23T19:56:01.680Z,95384.72
2022-09-23T19:59:05.278Z,95387.69
2022-09-23T20:02:08.782Z,95393.38
2022-09-23T20:05:12.146Z,95383.94
2022-09-23T20:08:13.855Z,95389.66
2022-09-23T20:11:16.598Z,95382.94
2022-09-23T20:14:19.850Z,95382.94
2022-09-23T20:17:21.574Z,95374.72
2022-09-23T20:20:23.198Z,95387.25
2022-09-23T20:23:24.819Z,95392.03
2022-09-23T20:26:26.525Z,95384.78
2022-09-23T20:29:29.526Z,95377.94
2022-09-23T20:32:31.216Z,95372.16
2022-09-23T20:35:32.897Z,95373.50
2022-09-23T20:38:34.894Z,95371.97
2022-09-23T20:41:37.436Z,95369.25
2022-09-23T20:44:40.682Z,95373.66
2022-09-23T20:47:42.327Z,95369.94
2022-09-23T20:50:43.901Z,95368.16
2022-09-23T20:53:48.004Z,95364.47
2022-09-23T20:56:49.612Z,95361.25
2022-09-23T20:59:53.017Z,95362.72
2022-09-23T21:02:54.626Z,95369.41
2022-09-23T21:05:56.390Z,95363.50
2022-09-23T21:08:57.978Z,95371.94
2022-09-23T21:11:59.802Z,95368.00
2022-09-23T21:15:02.910Z,95366.41
2022-09-23T21:18:04.583Z,95360.53
2022-09-23T21:21:06.447Z,95359.06
2022-09-23T21:24:36.132Z,95359.97
2022-09-23T21:27:29.785Z,95358.53
2022-09-23T21:30:32.792Z,95347.34
2022-09-23T21:33:35.021Z,95352.69
2022-09-23T21:36:37.407Z,95356.03
2022-09-23T21:39:39.053Z,95355.84
2022-09-23T21:42:40.708Z,95351.00
2022-09-23T21:45:43.729Z,95355.91
2022-09-23T21:48:45.854Z,95358.66
2022-09-23T21:51:47.533Z,95356.69
2022-09-23T21:54:49.247Z,95357.63
2022-09-23T21:57:51.888Z,95358.47
2022-09-23T22:00:54.935Z,95355.38
2022-09-23T22:03:57.559Z,95367.56
2022-09-23T22:06:59.301Z,95363.69
2022-09-23T22:10:01.005Z,95360.13
2022-09-23T22:13:02.610Z,95365.06
2022-09-23T22:16:05.918Z,95363.34
2022-09-23T22:19:07.984Z,95352.66
2022-09-23T22:22:10.822Z,95351.28
2022-09-23T22:25:12.557Z,95359.88
2022-09-23T22:28:14.297Z,95355.53
2022-09-23T22:31:17.367Z,95356.47
2022-09-23T22:34:47.470Z,95355.53
2022-09-23T22:37:40.824Z,95351.00
2022-09-23T22:40:42.636Z,95344.16
2022-09-23T22:43:44.340Z,95340.06
2022-09-23T22:46:47.757Z,95344.97
2022-09-23T22:49:49.681Z,95342.50
2022-09-23T22:52:51.314Z,95345.56
2022-09-23T22:56:01.878Z,95343.81
2022-09-23T22:59:03.822Z,95345.81
2022-09-23T23:02:08.755Z,95344.59
2022-09-23T23:05:10.514Z,95344.88
2022-09-23T23:08:12.129Z,95340.00
2022-09-23T23:11:13.830Z,95343.59
2022-09-23T23:14:17.680Z,95338.69
2022-09-23T23:17:20.719Z,95332.91
2022-09-23T23:20:22.415Z,95338.66
2022-09-23T23:23:24.379Z,95338.69
2022-09-23T23:26:26.997Z,95333.25
2022-09-23T23:29:28.626Z,95334.41
2022-09-23T23:32:31.685Z,95336.63
2022-09-23T23:35:33.310Z,95326.63
2022-09-23T23:38:34.949Z,95325.59
2022-09-23T23:41:36.594Z,95321.47
2022-09-23T23:44:38.200Z,95316.03
2022-09-23T23:47:41.242Z,95320.66
2022-09-23T23:50:42.893Z,95318.94
2022-09-23T23:53:44.585Z,95316.69
2022-09-23T23:56:46.232Z,95314.34
2022-09-23T23:59:47.827Z,95308.25
